Time;durP1;ratioP1;P1;durP2;ratioP2;P2;SDS_P1;SDS_P2;PMS_P1;PMS_P2;Temp;Humidity;BMP_temperature;BMP_pressure;BME280_temperature;BME280_humidity;BME280_pressure;Samples;Min_cycle;Max_cycle;Signal;HPM_P1;HPM_P2
2021/12/22 00:00:09;;;;;;;76.72;34.28;;;;;;;-3.60;96.30;102579.81;5004735;28;20038;-64
2021/12/22 00:02:36;;;;;;;81.53;34.70;;;;;;;-3.61;96.35;102576.25;5003747;28;20041;-63
2021/12/22 00:05:01;;;;;;;78.05;35.38;;;;;;;-3.62;96.55;102579.06;5004354;28;20108;-63
2021/12/22 00:07:26;;;;;;;74.63;35.33;;;;;;;-3.63;96.45;102580.03;5004076;28;20042;-63
2021/12/22 00:09:52;;;;;;;80.82;35.65;;;;;;;-3.67;96.44;102582.88;5006596;28;20121;-63
2021/12/22 00:12:17;;;;;;;79.32;34.42;;;;;;;-3.67;96.26;102584.72;5021361;28;20117;-63
2021/12/22 00:14:42;;;;;;;76.45;34.17;;;;;;;-3.66;96.26;102578.38;5023697;28;20036;-63
2021/12/22 00:17:08;;;;;;;75.00;33.97;;;;;;;-3.69;96.46;102582.13;5003486;28;20020;-63
2021/12/22 00:19:33;;;;;;;82.75;32.40;;;;;;;-3.71;96.25;102580.47;5020217;28;20036;-64
2021/12/22 00:21:59;;;;;;;73.05;32.10;;;;;;;-3.72;96.15;102581.44;5012597;28;20041;-63
2021/12/22 00:24:24;;;;;;;67.25;31.65;;;;;;;-3.75;95.99;102585.22;5008797;28;20412;-63
2021/12/22 00:26:50;;;;;;;73.38;33.25;;;;;;;-3.76;95.96;102591.50;5023422;28;20354;-63
2021/12/22 00:29:16;;;;;;;66.07;32.78;;;;;;;-3.79;95.71;102583.66;5007172;28;20037;-63
2021/12/22 00:31:55;;;;;;;68.47;33.83;;;;;;;-3.80;95.63;102581.94;5007654;28;20076;-64
2021/12/22 00:34:21;;;;;;;70.32;32.50;;;;;;;-3.85;95.45;102572.41;5003773;28;20683;-63
2021/12/22 00:36:46;;;;;;;68.00;32.70;;;;;;;-3.89;95.77;102568.22;5003356;28;20033;-63
2021/12/22 00:39:11;;;;;;;71.00;31.88;;;;;;;-3.92;95.45;102574.63;5013164;28;20033;-63
2021/12/22 00:41:37;;;;;;;66.05;30.35;;;;;;;-3.96;95.60;102570.41;5023334;28;20037;-64
2021/12/22 00:44:03;;;;;;;71.45;32.50;;;;;;;-3.95;95.64;102574.84;4994153;28;20161;-64
2021/12/22 00:46:28;;;;;;;73.38;30.80;;;;;;;-3.97;95.74;102576.72;5003644;28;20117;-63
2021/12/22 00:48:53;;;;;;;70.78;32.08;;;;;;;-3.98;95.67;102583.91;5009752;28;20073;-63
2021/12/22 00:51:19;;;;;;;67.47;30.80;;;;;;;-3.99;95.46;102584.88;5019978;28;20438;-63
2021/12/22 00:53:44;;;;;;;68.20;32.70;;;;;;;-3.99;95.62;102581.34;5023798;28;20136;-63
2021/12/22 00:56:09;;;;;;;67.63;32.60;;;;;;;-4.01;95.98;102581.41;5011125;28;20034;-63
2021/12/22 00:58:34;;;;;;;68.13;30.98;;;;;;;-4.01;95.81;102578.72;5003719;28;20405;-64
2021/12/22 01:01:00;;;;;;;67.32;31.85;;;;;;;-4.01;95.90;102588.59;5005160;28;20026;-63
2021/12/22 01:03:25;;;;;;;71.20;32.25;;;;;;;-4.01;96.06;102581.41;5010344;28;20473;-63
2021/12/22 01:05:51;;;;;;;66.90;31.15;;;;;;;-4.03;96.26;102585.16;5017225;28;20054;-63
2021/12/22 01:08:16;;;;;;;66.93;30.77;;;;;;;-4.03;96.08;102588.72;5006986;28;20070;-63
2021/12/22 01:10:41;;;;;;;67.97;31.35;;;;;;;-4.03;95.93;102595.91;5006384;28;20515;-63
2021/12/22 01:13:07;;;;;;;63.63;30.60;;;;;;;-4.02;95.81;102598.47;5006381;28;20022;-63
2021/12/22 01:15:34;;;;;;;75.53;32.97;;;;;;;-4.05;95.75;102592.44;5005790;28;20026;-64
2021/12/22 01:18:05;;;;;;;65.22;31.45;;;;;;;-4.06;95.70;102586.19;5017071;28;20113;-63
2021/12/22 01:20:49;;;;;;;68.53;30.77;;;;;;;-4.05;95.97;102584.41;5023968;28;20025;-63
2021/12/22 01:23:15;;;;;;;71.43;33.83;;;;;;;-4.05;95.56;102574.53;5026299;28;20029;-63
2021/12/22 01:25:43;;;;;;;72.60;33.22;;;;;;;-4.04;95.86;102584.31;5008236;28;20049;-63
2021/12/22 01:28:10;;;;;;;71.65;33.22;;;;;;;-4.02;96.16;102571.63;5006479;28;20061;-64
2021/12/22 01:30:41;;;;;;;79.78;34.67;;;;;;;-4.02;96.40;102571.63;5006724;28;20032;-64
2021/12/22 01:33:07;;;;;;;70.45;31.52;;;;;;;-4.02;96.34;102586.88;5006146;28;20034;-64
2021/12/22 01:35:34;;;;;;;75.85;35.22;;;;;;;-4.03;96.05;102585.16;5006110;28;20077;-64
2021/12/22 01:38:00;;;;;;;71.70;31.83;;;;;;;-4.05;95.93;102576.34;5007571;28;20073;-63
2021/12/22 01:40:25;;;;;;;73.68;33.03;;;;;;;-4.07;96.39;102579.09;5015152;28;20045;-63
2021/12/22 01:42:55;;;;;;;79.75;32.45;;;;;;;-4.06;96.42;102569.22;4988653;28;20317;-63
2021/12/22 01:45:36;;;;;;;71.68;33.50;;;;;;;-4.06;96.28;102570.09;4986547;28;20034;-63
2021/12/22 01:50:49;;;;;;;73.93;31.25;;;;;;;-4.06;96.10;102569.22;5008807;28;20509;-63
2021/12/22 01:53:20;;;;;;;73.00;32.38;;;;;;;-4.06;96.37;102561.19;5004459;28;20026;-63
2021/12/22 01:55:59;;;;;;;69.30;32.40;;;;;;;-4.06;96.61;102569.22;5010376;28;20041;-64
2021/12/22 01:58:33;;;;;;;73.78;32.92;;;;;;;-4.07;96.49;102559.47;5005812;28;20026;-63
2021/12/22 02:01:01;;;;;;;72.93;31.27;;;;;;;-4.06;96.59;102566.56;5006684;28;20026;-63
2021/12/22 02:03:26;;;;;;;68.35;32.03;;;;;;;-4.04;96.58;102568.19;5005978;28;20029;-63
2021/12/22 02:05:51;;;;;;;80.55;34.53;;;;;;;-4.02;96.72;102573.47;5005180;28;20505;-65
2021/12/22 02:08:16;;;;;;;71.07;31.73;;;;;;;-4.02;96.95;102581.50;5005963;28;20178;-65
2021/12/22 02:10:46;;;;;;;73.78;32.78;;;;;;;-4.02;96.60;102576.16;4990749;28;20034;-65
2021/12/22 02:13:16;;;;;;;74.47;34.40;;;;;;;-4.03;96.49;102574.44;5005321;28;20103;-65
2021/12/22 02:15:43;;;;;;;66.25;31.95;;;;;;;-4.06;96.59;102583.50;5006857;28;20030;-65
2021/12/22 02:18:15;;;;;;;76.38;33.67;;;;;;;-4.07;96.57;102579.09;5016873;28;20030;-66
2021/12/22 02:20:40;;;;;;;75.75;31.88;;;;;;;-4.07;96.74;102572.88;5016198;28;20055;-66
2021/12/22 02:23:05;;;;;;;78.25;33.78;;;;;;;-4.10;96.62;102581.13;5005201;28;20045;-66
2021/12/22 02:25:36;;;;;;;72.40;31.17;;;;;;;-4.08;96.60;102582.75;5017605;28;20037;-65
2021/12/22 02:28:05;;;;;;;72.55;31.95;;;;;;;-4.10;96.66;102584.69;5025503;28;20105;-66
2021/12/22 02:30:32;;;;;;;72.20;33.08;;;;;;;-4.09;96.69;102581.03;5025594;28;20828;-66
2021/12/22 02:33:20;;;;;;;69.47;31.47;;;;;;;-4.08;96.87;102580.06;5014453;28;20029;-65
2021/12/22 02:35:55;;;;;;;74.70;33.25;;;;;;;-4.08;96.76;102576.53;5003316;28;20030;-65
2021/12/22 02:38:20;;;;;;;72.88;32.47;;;;;;;-4.08;96.65;102577.38;5006700;28;20117;-66
2021/12/22 02:40:51;;;;;;;74.10;32.05;;;;;;;-4.10;96.96;102578.44;5000495;28;20333;-65
2021/12/22 02:43:22;;;;;;;78.47;33.30;;;;;;;-4.11;96.61;102584.75;5005127;28;20030;-65
2021/12/22 02:45:48;;;;;;;75.07;32.28;;;;;;;-4.14;96.58;102572.41;5005342;28;20022;-65
2021/12/22 02:48:14;;;;;;;66.20;32.25;;;;;;;-4.15;96.76;102575.19;5010689;28;20052;-65
2021/12/22 02:50:40;;;;;;;71.03;32.20;;;;;;;-4.18;96.50;102568.16;5021960;28;20029;-65
2021/12/22 02:53:10;;;;;;;62.97;31.15;;;;;;;-4.21;96.63;102563.88;5023939;28;20034;-66
2021/12/22 02:58:27;;;;;;;68.82;31.08;;;;;;;-4.21;97.02;102571.91;5011639;23;20046;-65
2021/12/22 03:01:10;;;;;;;70.03;31.25;;;;;;;-4.24;96.67;102574.78;4985951;28;20030;-66
2021/12/22 03:03:56;;;;;;;76.72;30.90;;;;;;;-4.27;96.30;102572.25;4990863;28;20045;-65
2021/12/22 03:06:34;;;;;;;72.55;31.83;;;;;;;-4.28;96.30;102575.91;5003629;28;20033;-66
2021/12/22 03:09:13;;;;;;;67.88;29.98;;;;;;;-4.32;96.53;102584.22;5005787;28;20599;-65
2021/12/22 03:11:38;;;;;;;62.53;29.35;;;;;;;-4.31;96.25;102580.59;5005806;28;20022;-65
2021/12/22 03:14:04;;;;;;;71.40;31.50;;;;;;;-4.35;96.38;102574.56;5019985;28;20037;-63
2021/12/22 03:16:29;;;;;;;63.03;32.00;;;;;;;-4.35;96.66;102574.56;5005340;28;20460;-63
2021/12/22 03:18:54;;;;;;;72.28;32.08;;;;;;;-4.37;96.62;102575.59;5004482;28;20143;-63
2021/12/22 03:21:21;;;;;;;70.80;31.80;;;;;;;-4.40;96.36;102584.69;5013437;28;20041;-63
2021/12/22 03:23:48;;;;;;;66.07;30.75;;;;;;;-4.42;96.46;102583.91;5021959;28;20034;-63
2021/12/22 03:26:16;;;;;;;61.93;29.83;;;;;;;-4.44;96.18;102586.69;5003673;28;20029;-63
2021/12/22 03:28:41;;;;;;;66.47;31.05;;;;;;;-4.44;96.49;102588.50;5005031;28;20041;-63
2021/12/22 03:31:07;;;;;;;67.95;31.17;;;;;;;-4.44;96.32;102591.19;5004554;28;20029;-63
2021/12/22 03:33:32;;;;;;;67.80;32.70;;;;;;;-4.45;96.27;102597.50;5004703;28;20064;-63
2021/12/22 03:35:57;;;;;;;67.32;32.00;;;;;;;-4.46;96.16;102595.75;5015032;28;20373;-63
2021/12/22 03:38:23;;;;;;;70.25;31.98;;;;;;;-4.45;96.50;102589.47;5012556;28;20030;-63
2021/12/22 03:40:48;;;;;;;81.18;33.85;;;;;;;-4.43;96.57;102587.53;5004498;28;20080;-63
2021/12/22 03:43:13;;;;;;;74.32;33.35;;;;;;;-4.44;96.68;102591.19;5004320;28;20038;-63
2021/12/22 03:45:38;;;;;;;69.10;31.15;;;;;;;-4.44;96.53;102585.81;5004548;28;20034;-63
2021/12/22 03:48:04;;;;;;;64.97;31.73;;;;;;;-4.46;96.35;102587.72;5010294;28;20021;-63
2021/12/22 03:50:29;;;;;;;70.05;31.92;;;;;;;-4.48;96.38;102589.63;5023570;28;20036;-62
2021/12/22 03:52:55;;;;;;;67.40;32.47;;;;;;;-4.51;96.50;102592.50;5024627;28;20083;-63
2021/12/22 03:55:20;;;;;;;68.70;30.60;;;;;;;-4.51;96.50;102579.97;5022440;28;20129;-63
2021/12/22 03:57:46;;;;;;;66.93;31.02;;;;;;;-4.51;96.21;102579.06;5003949;28;20045;-63
2021/12/22 04:00:12;;;;;;;67.85;31.58;;;;;;;-4.52;96.55;102578.22;5003861;28;20025;-63
2021/12/22 04:02:38;;;;;;;72.25;31.50;;;;;;;-4.53;96.47;102578.31;5010298;28;20026;-63
2021/12/22 04:05:05;;;;;;;71.75;30.45;;;;;;;-4.58;96.36;102577.72;5003135;28;20444;-63
2021/12/22 04:07:31;;;;;;;64.32;29.73;;;;;;;-4.58;96.43;102577.72;5004657;28;20030;-63
2021/12/22 04:09:57;;;;;;;59.72;31.08;;;;;;;-4.59;96.39;102578.69;5004983;28;20041;-62
2021/12/22 04:12:23;;;;;;;71.57;31.95;;;;;;;-4.58;96.62;102572.38;5001818;28;20116;-63
2021/12/22 04:14:48;;;;;;;61.63;31.25;;;;;;;-4.59;96.39;102581.38;5005151;28;20758;-62
2021/12/22 04:17:13;;;;;;;66.15;31.38;;;;;;;-4.59;96.29;102576.88;5004139;28;20033;-63
2021/12/22 04:19:39;;;;;;;66.88;29.85;;;;;;;-4.57;96.65;102579.44;5003491;28;20084;-62
2021/12/22 04:22:04;;;;;;;70.40;30.92;;;;;;;-4.59;96.32;102576.00;5003673;28;20041;-63
2021/12/22 04:24:31;;;;;;;57.30;29.85;;;;;;;-4.60;96.20;102576.97;5004666;28;20117;-63
2021/12/22 04:26:56;;;;;;;64.68;29.88;;;;;;;-4.62;96.32;102562.78;5003717;28;20208;-63
2021/12/22 04:29:22;;;;;;;66.57;29.27;;;;;;;-4.63;96.64;102569.94;5004072;28;20053;-63
2021/12/22 04:31:47;;;;;;;64.47;30.50;;;;;;;-4.64;96.50;102562.88;5004750;28;20132;-63
2021/12/22 04:34:13;;;;;;;66.47;31.73;;;;;;;-4.64;96.59;102565.56;5003237;28;20399;-63
2021/12/22 04:36:40;;;;;;;66.38;30.92;;;;;;;-4.62;96.76;102563.63;5025439;28;20057;-63
2021/12/22 04:39:08;;;;;;;64.65;31.67;;;;;;;-4.61;96.52;102559.13;5016655;28;20049;-63
2021/12/22 04:41:33;;;;;;;;;;;;;;;-4.56;96.59;102549.88;5007931;28;20026;-63
2021/12/22 04:43:59;;;;;;;65.75;29.25;;;;;;;-4.60;96.41;102552.84;5008040;28;20283;-63
2021/12/22 04:46:24;;;;;;;62.78;28.88;;;;;;;-4.61;96.22;102551.09;5007264;28;20498;-63
2021/12/22 04:48:50;;;;;;;66.97;31.38;;;;;;;-4.61;96.58;102553.75;5011905;28;20398;-63
2021/12/22 04:51:25;;;;;;;67.28;30.20;;;;;;;-4.62;96.44;102549.38;5026687;28;20048;-63
2021/12/22 04:54:04;;;;;;;59.70;29.98;;;;;;;-4.61;96.47;102543.94;5015163;28;20431;-63
2021/12/22 04:56:30;;;;;;;62.92;29.88;;;;;;;-4.60;96.74;102536.75;5007410;28;20129;-63
2021/12/22 04:58:55;;;;;;;62.03;30.70;;;;;;;-4.61;97.09;102546.63;4998381;28;20042;-63
2021/12/22 05:01:20;;;;;;;62.13;30.48;;;;;;;-4.59;96.77;102549.19;4997563;28;20025;-63
2021/12/22 05:03:46;;;;;;;61.17;30.63;;;;;;;-4.57;97.06;102548.13;5006712;28;20022;-63
2021/12/22 05:06:11;;;;;;;67.20;29.85;;;;;;;-4.54;97.43;102539.94;5010700;28;20131;-62
2021/12/22 05:08:36;;;;;;;60.33;30.83;;;;;;;-4.54;97.00;102545.28;5007597;28;20026;-63
2021/12/22 05:11:02;;;;;;;66.53;30.90;;;;;;;-4.52;97.08;102539.81;5006272;28;20034;-63
2021/12/22 05:13:29;;;;;;;62.40;29.45;;;;;;;-4.51;97.11;102539.75;5007747;28;20088;-63
2021/12/22 05:15:54;;;;;;;60.08;29.88;;;;;;;-4.52;96.41;102539.81;5007159;28;20026;-63
2021/12/22 05:18:47;;;;;;;60.65;29.05;;;;;;;-4.55;97.02;102537.34;5006094;28;20101;-62
2021/12/22 05:21:10;;;;;;;63.85;30.88;;;;;;;-4.57;96.63;102539.22;5017550;28;20069;-63
2021/12/22 05:23:36;;;;;;;65.18;29.52;;;;;;;-4.56;96.84;102533.81;5008092;28;20072;-63
2021/12/22 05:26:01;;;;;;;58.40;28.38;;;;;;;-4.57;97.00;102537.41;5006735;28;20108;-63
2021/12/22 05:28:26;;;;;;;62.45;29.00;;;;;;;-4.54;96.91;102533.69;5007373;28;20026;-63
2021/12/22 05:30:51;;;;;;;61.08;29.17;;;;;;;-4.53;97.24;102538.09;5005542;28;20025;-62
2021/12/22 05:33:17;;;;;;;58.00;29.13;;;;;;;-4.55;96.97;102538.19;5006345;28;20026;-63
2021/12/22 05:35:42;;;;;;;60.53;28.98;;;;;;;-4.57;96.70;102545.47;5006303;28;20076;-63
2021/12/22 05:38:08;;;;;;;63.00;30.10;;;;;;;-4.59;96.71;102527.75;5006658;28;20034;-63
2021/12/22 05:40:33;;;;;;;63.38;28.67;;;;;;;-4.61;96.90;102527.84;5005864;28;20036;-63
2021/12/22 05:42:58;;;;;;;57.33;28.25;;;;;;;-4.61;96.82;102532.31;5006829;28;20041;-63
2021/12/22 05:45:27;;;;;;;53.38;27.17;;;;;;;-4.64;96.91;102529.84;5006522;28;20053;-63
2021/12/22 05:47:53;;;;;;;54.92;28.60;;;;;;;-4.65;96.95;102517.41;5004983;28;20022;-63
2021/12/22 05:50:20;;;;;;;55.05;28.30;;;;;;;-4.65;97.05;102517.41;5008492;28;20028;-63
2021/12/22 05:52:45;;;;;;;60.20;29.63;;;;;;;-4.67;96.84;102516.59;5009852;28;20125;-63
2021/12/22 05:55:10;;;;;;;65.18;27.15;;;;;;;-4.67;97.07;102520.16;5005510;28;20365;-63
2021/12/22 05:57:36;;;;;;;62.83;28.05;;;;;;;-4.71;96.78;102516.81;5005796;28;20132;-63
2021/12/22 06:00:02;;;;;;;60.88;26.98;;;;;;;-4.72;97.06;102520.41;5007429;28;20026;-66
2021/12/22 06:02:27;;;;;;;58.47;29.38;;;;;;;-4.73;96.87;102515.16;5006178;28;20034;-66
2021/12/22 06:04:53;;;;;;;50.75;26.08;;;;;;;-4.75;96.96;102509.03;5003810;28;20026;-66
2021/12/22 06:07:18;;;;;;;58.78;28.27;;;;;;;-4.75;96.85;102515.25;5005419;28;20428;-63
2021/12/22 06:09:43;;;;;;;60.53;27.85;;;;;;;-4.75;96.83;102517.94;5006134;28;20029;-63
2021/12/22 06:12:08;;;;;;;58.65;27.50;;;;;;;-4.75;97.01;102520.63;5005276;28;20373;-63
2021/12/22 06:14:34;;;;;;;60.47;28.63;;;;;;;-4.76;96.90;102524.25;5006545;28;20057;-63
2021/12/22 06:16:59;;;;;;;60.35;28.15;;;;;;;-4.76;97.09;102526.94;5005914;28;20025;-63
2021/12/22 06:19:24;;;;;;;54.42;27.20;;;;;;;-4.75;97.18;102528.66;5004841;28;20022;-63
2021/12/22 06:21:50;;;;;;;62.97;28.00;;;;;;;-4.74;97.46;102533.06;5005794;28;20485;-64
2021/12/22 06:24:16;;;;;;;56.28;26.75;;;;;;;-4.75;97.23;102522.44;5005680;28;20096;-65
2021/12/22 06:26:41;;;;;;;47.08;26.02;;;;;;;-4.77;97.23;102519.81;5020698;28;20064;-64
2021/12/22 06:29:06;;;;;;;51.25;25.80;;;;;;;-4.78;96.98;102528.81;5025293;28;20025;-64
2021/12/22 06:31:31;;;;;;;54.28;25.60;;;;;;;-4.79;97.10;102521.75;5022303;28;20088;-64
2021/12/22 06:33:57;;;;;;;49.33;26.63;;;;;;;-4.79;96.80;102523.56;5005073;28;20030;-64
2021/12/22 06:36:22;;;;;;;51.13;27.23;;;;;;;-4.79;97.38;102521.75;5016095;28;20033;-64
2021/12/22 06:38:48;;;;;;;56.70;27.70;;;;;;;-4.77;97.04;102527.88;5025571;28;20033;-64
2021/12/22 06:41:13;;;;;;;54.55;27.15;;;;;;;-4.77;97.11;102519.81;5022700;28;20052;-64
2021/12/22 06:43:38;;;;;;;52.33;27.00;;;;;;;-4.78;97.23;102523.47;5005657;28;20531;-64
2021/12/22 06:46:04;;;;;;;47.78;25.85;;;;;;;-4.80;96.81;102525.38;5004896;28;20022;-64
2021/12/22 06:48:29;;;;;;;55.35;25.77;;;;;;;-4.81;96.72;102531.69;5002718;28;20395;-64
2021/12/22 06:50:54;;;;;;;46.47;24.83;;;;;;;-4.85;96.38;102534.66;5005126;28;20117;-64
2021/12/22 06:53:19;;;;;;;46.45;25.17;;;;;;;-4.90;96.28;102534.91;5005035;28;20030;-64
2021/12/22 06:55:45;;;;;;;50.47;26.13;;;;;;;-4.92;96.18;102541.28;5012629;28;20026;-64
2021/12/22 06:58:11;;;;;;;47.97;25.65;;;;;;;-4.96;96.16;102535.28;5024042;28;20073;-64
2021/12/22 07:00:36;;;;;;;48.60;24.92;;;;;;;-5.00;96.36;102539.94;4996476;28;20042;-63
2021/12/22 07:03:04;;;;;;;47.47;24.98;;;;;;;-5.02;95.92;102541.84;5005255;28;20046;-64
2021/12/22 07:05:30;;;;;;;;;;;;;;;-4.97;96.18;102547.81;5004703;28;20087;-62
2021/12/22 07:07:55;;;;;;;51.00;24.27;;;;;;;-5.06;96.02;102539.44;5005434;28;20371;-63
2021/12/22 07:10:20;;;;;;;50.53;24.88;;;;;;;-5.09;95.92;102544.97;5004429;28;20033;-63
2021/12/22 07:12:46;;;;;;;44.83;25.63;;;;;;;-5.10;96.46;102543.22;5018158;28;20464;-63
2021/12/22 07:15:14;;;;;;;45.95;23.50;;;;;;;-5.10;96.46;102532.53;5004059;28;20020;-63
2021/12/22 07:17:46;;;;;;;51.42;25.88;;;;;;;-5.12;95.89;102532.63;5004826;28;20057;-63
2021/12/22 07:20:12;;;;;;;52.10;25.88;;;;;;;-5.13;96.06;102530.00;5003687;28;20037;-63
2021/12/22 07:22:38;;;;;;;48.58;23.75;;;;;;;-5.14;96.16;102525.59;5005770;28;20034;-63
2021/12/22 07:25:06;;;;;;;52.60;25.40;;;;;;;-5.14;96.41;102521.09;5004276;28;20026;-63
2021/12/22 07:27:31;;;;;;;52.83;27.45;;;;;;;-5.10;96.94;102521.81;5004293;28;20036;-63
2021/12/22 07:29:56;;;;;;;50.50;25.10;;;;;;;-5.07;97.09;102526.97;5006858;28;20029;-64
2021/12/22 07:32:22;;;;;;;47.25;25.13;;;;;;;-5.07;96.83;102524.28;5004403;28;20503;-64
2021/12/22 07:35:05;;;;;;;45.17;24.38;;;;;;;-5.04;96.84;102524.97;5003694;28;20652;-63
2021/12/22 07:37:43;;;;;;;50.63;25.80;;;;;;;-5.03;96.70;102532.06;5004841;28;20034;-63
2021/12/22 07:40:12;;;;;;;44.22;23.77;;;;;;;-5.04;96.41;102534.84;5004593;28;20103;-64
2021/12/22 07:42:38;;;;;;;47.70;23.08;;;;;;;-5.04;96.77;102518.78;5008035;28;20050;-64
2021/12/22 07:45:04;;;;;;;46.05;23.77;;;;;;;-5.04;96.26;102530.34;5004149;28;20030;-63
2021/12/22 07:47:30;;;;;;;46.33;24.67;;;;;;;-5.03;96.34;102520.50;5004772;28;20054;-63
2021/12/22 07:49:55;;;;;;;48.72;24.73;;;;;;;-4.98;96.48;102526.44;5003657;28;20092;-63
2021/12/22 07:52:22;;;;;;;51.30;24.92;;;;;;;-4.97;96.81;102529.06;5016076;28;20602;-63
2021/12/22 07:54:48;;;;;;;48.20;25.00;;;;;;;-4.91;96.12;102518.94;5006443;28;20053;-64
2021/12/22 07:57:13;;;;;;;43.72;25.00;;;;;;;-4.88;96.75;102527.63;5003585;28;20069;-64
2021/12/22 07:59:38;;;;;;;42.90;24.90;;;;;;;-4.83;96.75;102522.00;5004291;28;20060;-64
2021/12/22 08:02:03;;;;;;;47.70;24.90;;;;;;;-4.79;96.60;102520.88;5003556;28;20041;-63
2021/12/22 08:04:29;;;;;;;41.40;22.95;;;;;;;-4.73;96.60;102513.34;5003618;28;20461;-63
2021/12/22 08:06:55;;;;;;;45.72;25.15;;;;;;;-4.70;96.54;102517.66;5005383;28;20022;-63
2021/12/22 08:09:25;;;;;;;44.10;25.13;;;;;;;-4.65;96.77;102512.91;5003981;28;20022;-63
2021/12/22 08:11:55;;;;;;;48.88;24.88;;;;;;;-4.59;96.58;102517.88;5008115;28;20060;-63
2021/12/22 08:14:22;;;;;;;45.97;26.10;;;;;;;-4.51;96.43;102509.38;5007742;28;20091;-64
2021/12/22 08:16:48;;;;;;;46.47;23.52;;;;;;;-4.44;96.06;102508.06;5024634;28;20080;-63
2021/12/22 08:19:13;;;;;;;41.47;24.60;;;;;;;-4.26;96.41;102508.75;5017332;28;20033;-64
2021/12/22 08:21:38;;;;;;;44.05;23.00;;;;;;;-3.94;95.75;102512.16;4990125;28;20125;-64
2021/12/22 08:24:04;;;;;;;40.85;22.92;;;;;;;-3.77;95.12;102519.97;4997653;28;20050;-64
2021/12/22 08:26:29;;;;;;;41.00;22.10;;;;;;;-3.73;94.38;102510.78;5014788;28;20538;-63
2021/12/22 08:28:55;;;;;;;40.13;22.02;;;;;;;-3.72;94.08;102507.13;5004513;28;20026;-64
2021/12/22 08:31:20;;;;;;;36.63;21.02;;;;;;;-3.66;93.91;102520.16;5004271;28;20049;-64
2021/12/22 08:33:46;;;;;;;35.85;20.20;;;;;;;-3.60;93.87;102512.69;5000860;28;20026;-64
2021/12/22 08:39:00;;;;;;;33.95;20.83;;;;;;;-3.37;93.29;102509.38;5000290;28;20560;-64
2021/12/22 08:41:34;;;;;;;39.90;21.40;;;;;;;-3.25;92.62;102510.41;4986835;28;20038;-64
2021/12/22 08:44:05;;;;;;;33.95;20.25;;;;;;;-3.15;92.40;102509.69;5002875;28;20457;-64
2021/12/22 08:46:31;;;;;;;38.58;20.23;;;;;;;-2.96;91.98;102506.66;5005305;28;20036;-64
2021/12/22 08:48:57;;;;;;;36.47;20.17;;;;;;;-2.49;91.37;102496.34;5005203;28;20034;-64
2021/12/22 08:51:23;;;;;;;34.40;18.63;;;;;;;-2.17;88.95;102502.22;5005906;28;20041;-64
2021/12/22 08:53:48;;;;;;;30.73;19.38;;;;;;;-2.14;88.43;102502.81;5006622;28;20037;-64
2021/12/22 08:56:14;;;;;;;33.40;18.65;;;;;;;-2.23;88.48;102497.22;5004376;28;20022;-64
2021/12/22 08:58:39;;;;;;;32.95;18.90;;;;;;;-2.36;88.73;102503.47;5000172;28;20081;-64
2021/12/22 09:01:06;;;;;;;29.85;17.92;;;;;;;-2.40;88.90;102498.41;5002680;28;20061;-65
2021/12/22 09:03:32;;;;;;;30.90;17.42;;;;;;;-2.40;88.90;102506.47;5005011;28;20053;-64
2021/12/22 09:05:58;;;;;;;32.10;17.92;;;;;;;-2.36;88.71;102502.63;4998537;28;20112;-64
2021/12/22 09:08:23;;;;;;;29.50;17.73;;;;;;;-2.31;88.70;102500.47;4994187;28;20109;-64
2021/12/22 09:10:49;;;;;;;27.75;17.00;;;;;;;-2.18;88.88;102501.34;4987783;28;20048;-64
2021/12/22 09:13:15;;;;;;;31.45;17.38;;;;;;;-2.03;88.12;102494.00;4998089;28;20144;-64
2021/12/22 09:15:41;;;;;;;28.05;17.70;;;;;;;-1.92;87.35;102499.50;5000744;28;20030;-64
2021/12/22 09:18:06;;;;;;;33.72;16.85;;;;;;;-1.71;87.20;102499.81;5005717;28;20022;-65
2021/12/22 09:20:32;;;;;;;33.53;17.38;;;;;;;-1.50;86.35;102501.91;5004714;28;20022;-64
2021/12/22 09:22:57;;;;;;;31.23;16.50;;;;;;;-1.43;85.49;102497.78;4993279;28;20041;-64
2021/12/22 09:25:22;;;;;;;26.55;15.90;;;;;;;-1.37;85.07;102509.00;4993825;28;20749;-65
2021/12/22 09:27:48;;;;;;;32.53;16.45;;;;;;;-1.23;85.27;102505.25;5005494;28;20026;-64
2021/12/22 09:30:13;;;;;;;27.55;16.10;;;;;;;-1.08;84.36;102511.38;5000148;28;20006;-64
2021/12/22 09:32:39;;;;;;;28.35;17.23;;;;;;;-1.09;84.34;102501.56;5000611;28;20449;-64
2021/12/22 09:35:05;;;;;;;26.52;16.55;;;;;;;-1.12;84.63;102497.25;4993048;28;20029;-65
2021/12/22 09:37:30;;;;;;;28.95;17.73;;;;;;;-1.06;84.36;102494.09;5006657;28;20376;-65
2021/12/22 09:39:56;;;;;;;29.70;16.13;;;;;;;-0.88;84.55;102493.69;5004859;28;20037;-64
2021/12/22 09:42:21;;;;;;;30.33;17.17;;;;;;;-0.83;83.84;102491.50;4988987;28;20233;-65
2021/12/22 09:44:47;;;;;;;26.33;16.08;;;;;;;-0.72;83.39;102493.38;4986531;28;20030;-65
2021/12/22 09:47:16;;;;;;;22.15;15.45;;;;;;;-0.72;82.55;102491.53;4993293;28;20022;-64
2021/12/22 09:52:26;;;;;;;24.33;15.68;;;;;;;-0.22;82.04;102486.78;5006145;28;20541;-65
2021/12/22 09:54:54;;;;;;;28.48;15.07;;;;;;;-0.04;81.43;102481.78;5006576;28;20040;-65
2021/12/22 09:57:21;;;;;;;26.60;16.02;;;;;;;-0.16;81.37;102486.28;5004624;28;20034;-65
2021/12/22 09:59:49;;;;;;;28.48;15.80;;;;;;;-0.03;81.36;102470.84;5005820;28;20025;-65
2021/12/22 10:02:16;;;;;;;26.83;16.85;;;;;;;0.09;80.58;102481.66;5005029;28;20111;-65
2021/12/22 10:04:42;;;;;;;25.35;15.35;;;;;;;0.35;80.60;102485.81;5003549;28;20556;-64
2021/12/22 10:07:09;;;;;;;23.33;14.98;;;;;;;0.73;79.55;102485.41;5004341;28;20032;-64
2021/12/22 10:09:45;;;;;;;26.63;15.68;;;;;;;1.24;78.11;102483.91;5003511;28;20334;-64
2021/12/22 10:12:19;;;;;;;23.85;14.15;;;;;;;1.44;76.70;102479.50;5003512;28;20528;-65
2021/12/22 10:14:54;;;;;;;24.65;14.32;;;;;;;1.59;75.87;102478.19;5019954;28;20045;-64
2021/12/22 10:17:47;;;;;;;22.83;13.95;;;;;;;1.69;76.00;102471.00;5004275;28;20072;-65
2021/12/22 10:20:20;;;;;;;20.92;13.80;;;;;;;1.77;73.71;102468.47;4999061;28;20038;-65
2021/12/22 10:22:50;;;;;;;20.30;12.93;;;;;;;1.95;74.41;102473.28;5003621;28;20461;-64
2021/12/22 10:25:22;;;;;;;23.30;13.73;;;;;;;1.81;73.28;102458.22;4997629;28;20022;-64
2021/12/22 10:28:20;;;;;;;19.27;13.32;;;;;;;2.10;75.38;102463.78;4993529;28;20210;-65
2021/12/22 10:30:47;;;;;;;22.92;13.27;;;;;;;2.40;71.22;102467.50;4972131;28;20038;-64
2021/12/22 10:33:18;;;;;;;21.98;12.80;;;;;;;2.32;71.65;102460.03;5003315;28;20022;-65
2021/12/22 10:35:50;;;;;;;18.15;12.13;;;;;;;2.43;72.00;102454.47;5005369;28;20144;-64
2021/12/22 10:38:28;;;;;;;19.55;12.63;;;;;;;3.20;70.92;102452.91;5005163;28;20035;-65
2021/12/22 10:40:57;;;;;;;25.77;13.35;;;;;;;4.33;66.69;102444.75;5004874;28;20045;-65
2021/12/22 10:43:29;;;;;;;21.23;14.23;;;;;;;5.55;63.15;102428.81;4997023;28;20103;-64
2021/12/22 10:45:57;;;;;;;23.30;13.45;;;;;;;6.16;59.16;102428.72;4993585;28;20030;-64
2021/12/22 10:51:20;;;;;;;23.00;13.82;;;;;;;6.51;56.24;102435.00;4995682;28;20057;-64
2021/12/22 10:53:50;;;;;;;21.33;13.85;;;;;;;5.89;59.06;102428.88;5003092;28;20030;-65
2021/12/22 10:56:30;;;;;;;21.75;14.43;;;;;;;5.64;61.41;102425.13;4986200;28;20117;-64
2021/12/22 10:59:06;;;;;;;28.13;15.65;;;;;;;5.53;60.83;102418.06;5003955;28;20431;-64
2021/12/22 11:01:36;;;;;;;23.08;16.52;;;;;;;5.64;60.80;102411.50;5005095;28;20108;-64
2021/12/22 11:04:05;;;;;;;24.17;16.35;;;;;;;5.62;58.99;102418.97;5003646;28;20149;-64
2021/12/22 11:06:34;;;;;;;25.83;15.55;;;;;;;6.21;57.87;102415.44;4987193;28;20036;-64
2021/12/22 11:09:15;;;;;;;22.05;15.73;;;;;;;6.47;58.49;102406.31;4989928;28;20092;-64
2021/12/22 11:11:50;;;;;;;18.65;13.75;;;;;;;6.52;56.70;102409.41;4983584;28;20037;-64
2021/12/22 11:14:27;;;;;;;21.58;14.65;;;;;;;6.72;54.88;102405.38;4995042;28;20034;-64
2021/12/22 11:17:08;;;;;;;22.33;13.60;;;;;;;7.66;56.13;102403.19;4990411;28;20026;-64
2021/12/22 11:19:47;;;;;;;21.05;12.88;;;;;;;8.30;52.90;102396.66;5003697;28;20277;-64
2021/12/22 11:22:16;;;;;;;23.10;12.90;;;;;;;8.63;51.92;102406.66;5010696;28;20037;-64
2021/12/22 11:24:50;;;;;;;22.00;12.88;;;;;;;8.50;52.43;102399.84;5011446;28;20068;-64
2021/12/22 11:27:21;;;;;;;17.70;11.85;;;;;;;8.56;49.66;102396.38;5035688;28;20457;-64